Time;durP1;ratioP1;P1;durP2;ratioP2;P2;SDS_P1;SDS_P2;PMS_P1;PMS_P2;Temp;Humidity;BMP_temperature;BMP_pressure;BME280_temperature;BME280_humidity;BME280_pressure;Samples;Min_cycle;Max_cycle;Signal;HPM_P1;HPM_P2
2021/09/05 00:01:28;;;;;;;24.58;16.50;;;;;;;12.77;100.00;101913.00;10462352;28;20485;-60
2021/09/05 00:06:31;;;;;;;22.50;18.10;;;;;;;12.69;100.00;101916.94;10462317;28;20140;-59
2021/09/05 00:11:34;;;;;;;23.95;16.77;;;;;;;12.69;100.00;101916.94;10461863;28;20056;-59
2021/09/05 00:16:36;;;;;;;25.80;16.20;;;;;;;12.51;100.00;101916.03;10461622;28;20515;-59
2021/09/05 00:21:38;;;;;;;27.40;17.83;;;;;;;12.70;100.00;101916.88;10461509;28;20041;-61
2021/09/05 00:26:42;;;;;;;27.00;17.75;;;;;;;12.73;100.00;101924.63;10461021;28;20484;-59
2021/09/05 00:31:44;;;;;;;24.83;16.48;;;;;;;12.61;100.00;101914.72;10461172;28;20504;-58
2021/09/05 00:36:47;;;;;;;21.40;15.98;;;;;;;12.55;100.00;101909.75;10459696;28;20049;-59
2021/09/05 00:41:49;;;;;;;32.10;19.75;;;;;;;12.37;100.00;101914.09;10460679;28;20501;-58
2021/09/05 00:46:52;;;;;;;22.05;16.55;;;;;;;12.49;100.00;101913.53;10460686;28;20416;-59
2021/09/05 00:51:55;;;;;;;25.27;16.95;;;;;;;12.38;100.00;101919.25;10461047;28;20044;-58
2021/09/05 00:56:58;;;;;;;27.10;16.73;;;;;;;12.23;100.00;101918.19;10460103;28;20508;-59
2021/09/05 01:02:01;;;;;;;22.65;16.38;;;;;;;12.13;100.00;101919.56;10460147;28;20056;-59
2021/09/05 01:07:04;;;;;;;31.35;18.38;;;;;;;12.06;100.00;101924.22;10459973;28;20045;-59
2021/09/05 01:12:07;;;;;;;24.20;17.40;;;;;;;12.10;100.00;101931.97;10459602;28;20452;-59
2021/09/05 01:17:11;;;;;;;26.33;18.83;;;;;;;12.15;100.00;101935.25;10459888;28;20045;-60
2021/09/05 01:22:13;;;;;;;27.13;17.77;;;;;;;11.99;100.00;101929.84;10459208;28;20044;-59
2021/09/05 01:27:16;;;;;;;31.55;18.17;;;;;;;12.02;100.00;101925.31;10459395;28;20086;-60
2021/09/05 01:32:18;;;;;;;24.52;17.92;;;;;;;11.94;100.00;101924.81;10458855;28;20055;-60
2021/09/05 01:37:21;;;;;;;28.90;18.92;;;;;;;12.08;100.00;101930.25;10458585;28;20045;-61
2021/09/05 01:42:23;;;;;;;26.92;18.35;;;;;;;11.94;100.00;101929.22;10458841;28;20055;-60
2021/09/05 01:47:25;;;;;;;37.70;18.52;;;;;;;11.77;100.00;101928.16;10458211;28;20056;-61
2021/09/05 01:52:28;;;;;;;25.83;16.98;;;;;;;11.80;100.00;101925.41;10458422;28;20052;-60
2021/09/05 01:57:30;;;;;;;26.13;17.45;;;;;;;11.99;100.00;101927.22;10457978;28;20045;-60
2021/09/05 02:02:33;;;;;;;25.63;18.25;;;;;;;11.72;100.00;101927.50;10457716;28;20053;-59
2021/09/05 02:07:35;;;;;;;28.20;17.58;;;;;;;11.70;100.00;101922.31;10457596;28;20053;-60
2021/09/05 02:12:37;;;;;;;27.00;16.58;;;;;;;11.67;100.00;101924.22;10457442;28;20071;-59
2021/09/05 02:17:40;;;;;;;22.80;16.63;;;;;;;11.61;100.00;101927.97;10457713;28;20119;-60
2021/09/05 02:22:42;;;;;;;26.10;16.85;;;;;;;11.62;100.00;101923.59;10457195;28;20049;-60
2021/09/05 02:27:44;;;;;;;25.58;15.40;;;;;;;11.52;100.00;101925.75;10455323;28;20551;-59
2021/09/05 02:32:47;;;;;;;24.50;15.68;;;;;;;11.48;100.00;101930.28;10456791;28;20493;-60
2021/09/05 02:37:49;;;;;;;27.88;16.70;;;;;;;11.47;100.00;101940.84;10456488;28;20044;-59
2021/09/05 02:42:51;;;;;;;30.48;16.88;;;;;;;11.34;100.00;101945.75;10456779;28;20045;-59
2021/09/05 02:47:54;;;;;;;24.83;15.52;;;;;;;11.53;100.00;101940.53;10456204;28;20041;-60
2021/09/05 02:52:58;;;;;;;26.92;15.77;;;;;;;11.42;100.00;101940.19;10456246;28;20056;-59
2021/09/05 02:58:00;;;;;;;27.17;16.25;;;;;;;11.14;100.00;101941.31;10455105;28;20049;-59
2021/09/05 03:03:03;;;;;;;29.63;17.33;;;;;;;11.09;100.00;101938.03;10464922;28;20060;-60
2021/09/05 03:08:05;;;;;;;24.83;17.48;;;;;;;11.19;100.00;101943.75;10463268;28;20118;-59
2021/09/05 03:13:07;;;;;;;28.75;15.93;;;;;;;11.15;100.00;101935.19;10464389;28;20055;-59
2021/09/05 03:18:10;;;;;;;21.38;15.23;;;;;;;11.21;100.00;101934.91;10464826;28;20049;-59
2021/09/05 03:23:12;;;;;;;25.65;17.10;;;;;;;11.07;100.00;101935.47;10464255;28;20076;-59
2021/09/05 03:28:14;;;;;;;29.02;17.83;;;;;;;11.06;100.00;101933.81;10463481;28;20053;-59
2021/09/05 03:33:17;;;;;;;28.63;18.30;;;;;;;10.93;100.00;101935.22;10463968;28;20057;-60
2021/09/05 03:38:19;;;;;;;28.73;17.23;;;;;;;11.00;100.00;101928.81;10463260;28;20052;-60
2021/09/05 03:43:21;;;;;;;28.30;17.35;;;;;;;10.89;100.00;101936.25;10463595;28;20049;-60
2021/09/05 03:48:24;;;;;;;29.48;18.67;;;;;;;10.85;100.00;101929.44;10462970;28;20060;-60
2021/09/05 03:53:26;;;;;;;29.02;16.73;;;;;;;10.90;100.00;101930.09;10463160;28;20055;-59
2021/09/05 03:58:29;;;;;;;31.73;17.77;;;;;;;10.84;100.00;101935.56;10462654;28;20053;-59
2021/09/05 04:03:31;;;;;;;35.00;20.02;;;;;;;10.84;100.00;101951.28;10462474;28;20405;-60
2021/09/05 04:08:42;;;;;;;31.88;17.63;;;;;;;10.85;100.00;101947.78;10462351;28;20041;-58
2021/09/05 04:13:44;;;;;;;35.03;19.10;;;;;;;10.69;100.00;101944.88;10461995;28;20053;-59
2021/09/05 04:18:47;;;;;;;28.98;18.25;;;;;;;10.70;100.00;101946.59;10462455;28;20045;-59
2021/09/05 04:23:49;;;;;;;36.70;18.40;;;;;;;10.69;100.00;101955.38;10461645;28;20068;-59
2021/09/05 04:28:51;;;;;;;28.20;15.73;;;;;;;10.75;100.00;101960.38;10461463;28;20060;-59
2021/09/05 04:33:54;;;;;;;31.95;16.88;;;;;;;10.63;100.00;101945.16;10461452;28;20045;-60
2021/09/05 04:38:56;;;;;;;31.35;17.40;;;;;;;10.62;100.00;101954.75;10461059;28;20477;-60
2021/09/05 04:43:58;;;;;;;32.92;18.35;;;;;;;10.49;100.00;101956.13;10460752;28;20397;-60
2021/09/05 04:49:01;;;;;;;24.08;15.80;;;;;;;10.57;100.00;101964.56;10460638;28;20048;-60
2021/09/05 04:54:03;;;;;;;28.10;16.05;;;;;;;10.51;100.00;101968.28;10460858;28;20045;-59
2021/09/05 04:59:06;;;;;;;29.40;15.95;;;;;;;10.78;100.00;101976.81;10460129;28;20045;-59
2021/09/05 05:04:08;;;;;;;25.50;15.73;;;;;;;10.60;100.00;101972.31;10460429;28;20045;-60
2021/09/05 05:09:13;;;;;;;29.33;16.73;;;;;;;10.51;100.00;101970.91;10460034;28;20048;-59
2021/09/05 05:14:15;;;;;;;27.83;14.45;;;;;;;10.59;100.00;101976.69;10458662;28;20048;-59
2021/09/05 05:19:17;;;;;;;29.85;17.73;;;;;;;10.66;100.00;101982.53;10459968;28;20052;-59
2021/09/05 05:24:20;;;;;;;32.45;18.00;;;;;;;10.84;100.00;101987.97;10458761;28;20052;-59
2021/09/05 05:29:22;;;;;;;29.02;16.52;;;;;;;10.96;100.00;101985.72;10459393;28;20394;-59
2021/09/05 05:34:24;;;;;;;30.63;17.25;;;;;;;11.04;100.00;101995.03;10459098;28;20056;-60
2021/09/05 05:39:27;;;;;;;38.65;20.00;;;;;;;11.03;100.00;101988.94;10458579;28;20045;-60
2021/09/05 05:44:29;;;;;;;35.08;19.65;;;;;;;11.06;100.00;101991.47;10458765;28;20044;-59
2021/09/05 05:49:34;;;;;;;28.88;18.02;;;;;;;11.29;100.00;101989.66;10458303;28;20045;-59
2021/09/05 05:54:36;;;;;;;33.88;17.77;;;;;;;11.48;100.00;101994.97;10458539;28;20052;-59
2021/09/05 05:59:39;;;;;;;32.20;18.33;;;;;;;11.62;100.00;101994.41;10457454;28;20059;-59
2021/09/05 06:04:41;;;;;;;32.17;17.77;;;;;;;11.59;100.00;101995.38;10455780;28;20049;-59
2021/09/05 06:09:44;;;;;;;32.92;19.60;;;;;;;11.54;100.00;101999.97;10457070;28;20040;-60
2021/09/05 06:14:46;;;;;;;36.47;18.35;;;;;;;11.91;100.00;102001.03;10457999;28;20060;-59
2021/09/05 06:19:49;;;;;;;32.90;17.92;;;;;;;11.92;100.00;101997.50;10457216;28;20120;-59
2021/09/05 06:24:51;;;;;;;37.17;20.52;;;;;;;12.19;100.00;101992.78;10456901;28;20052;-59
2021/09/05 06:29:53;;;;;;;30.27;18.85;;;;;;;12.06;100.00;102004.75;10456608;28;20049;-59
2021/09/05 06:34:56;;;;;;;32.40;20.38;;;;;;;12.11;100.00;102004.56;10455902;28;20080;-59
2021/09/05 06:39:58;;;;;;;32.25;18.83;;;;;;;12.60;100.00;102020.72;10456524;28;20048;-60
2021/09/05 06:45:00;;;;;;;33.72;18.75;;;;;;;12.59;100.00;102003.22;10456795;28;20049;-59
2021/09/05 06:50:04;;;;;;;35.17;18.70;;;;;;;12.76;100.00;102012.94;10456209;28;20045;-59
2021/09/05 06:55:07;;;;;;;27.92;17.55;;;;;;;12.78;100.00;102011.97;10456907;28;20045;-59
2021/09/05 07:00:11;;;;;;;35.25;18.83;;;;;;;12.97;100.00;102011.09;10456444;28;20106;-60
2021/09/05 07:05:13;;;;;;;28.02;17.38;;;;;;;13.32;100.00;102014.66;10456806;28;20068;-60
2021/09/05 07:10:17;;;;;;;30.85;16.17;;;;;;;13.51;100.00;102024.25;10456071;28;20080;-60
2021/09/05 07:15:20;;;;;;;26.77;17.55;;;;;;;13.43;100.00;102027.28;10455845;28;20612;-59
2021/09/05 07:20:22;;;;;;;26.33;15.30;;;;;;;14.04;100.00;102032.97;10455994;28;20123;-59
2021/09/05 07:25:27;;;;;;;30.50;18.08;;;;;;;14.26;100.00;102033.53;10455649;28;20057;-59
2021/09/05 07:30:29;;;;;;;28.83;17.75;;;;;;;14.84;100.00;102026.03;10455626;28;20052;-60
2021/09/05 07:35:31;;;;;;;24.80;16.55;;;;;;;15.32;98.48;102033.91;10455715;28;20059;-59
2021/09/05 07:40:34;;;;;;;26.15;15.05;;;;;;;15.49;99.94;102038.19;10455732;28;20041;-60
2021/09/05 07:45:36;;;;;;;26.42;16.10;;;;;;;16.47;94.45;102040.19;10458095;28;20049;-59
2021/09/05 07:50:38;;;;;;;21.13;12.40;;;;;;;16.87;94.06;102042.16;10463114;28;20049;-59
2021/09/05 07:55:41;;;;;;;21.65;13.68;;;;;;;16.81;91.42;102045.16;10463625;28;20052;-59
2021/09/05 08:00:43;;;;;;;17.55;11.57;;;;;;;16.52;87.55;102048.72;10462572;28;20049;-59
2021/09/05 08:05:46;;;;;;;23.27;13.20;;;;;;;16.75;88.12;102050.84;10462172;28;20076;-59
2021/09/05 08:10:48;;;;;;;19.33;12.25;;;;;;;17.51;86.89;102058.25;10461925;28;20053;-60
2021/09/05 08:15:50;;;;;;;15.68;10.65;;;;;;;18.71;82.24;102062.38;10462400;28;20057;-60
2021/09/05 08:20:53;;;;;;;16.25;11.35;;;;;;;17.54;82.31;102073.09;10461679;28;20051;-59
2021/09/05 08:25:55;;;;;;;20.08;11.82;;;;;;;18.77;80.04;102074.38;10461437;28;20052;-59
2021/09/05 08:30:58;;;;;;;16.73;11.40;;;;;;;19.15;74.12;102068.97;10460301;28;20374;-60
2021/09/05 08:36:00;;;;;;;14.60;11.25;;;;;;;19.48;79.92;102073.56;10461074;28;20106;-60
2021/09/05 08:41:02;;;;;;;19.83;11.88;;;;;;;19.96;75.68;102083.25;10461245;28;20052;-60
2021/09/05 08:46:06;;;;;;;16.50;11.43;;;;;;;18.98;75.51;102083.47;10460810;28;20131;-59
2021/09/05 08:51:08;;;;;;;15.63;10.18;;;;;;;20.58;72.32;102087.28;10460753;28;20049;-59
2021/09/05 08:56:11;;;;;;;15.65;10.23;;;;;;;20.56;70.47;102083.91;10459777;28;20057;-59
2021/09/05 09:01:17;;;;;;;16.92;10.57;;;;;;;20.28;74.07;102087.88;10460149;28;20053;-59
2021/09/05 09:06:20;;;;;;;16.38;9.93;;;;;;;21.61;69.85;102093.22;10459761;28;20052;-60
2021/09/05 09:11:23;;;;;;;18.25;11.32;;;;;;;20.21;73.59;102102.63;10459665;28;20056;-59
2021/09/05 09:16:35;;;;;;;19.73;10.45;;;;;;;21.88;68.23;102106.84;10459458;28;20056;-60
2021/09/05 09:21:40;;;;;;;14.20;11.00;;;;;;;21.12;70.69;102103.44;10459769;28;20120;-59
2021/09/05 09:26:42;;;;;;;24.48;12.45;;;;;;;22.53;67.11;102106.66;10459215;28;20089;-60
2021/09/05 09:31:45;;;;;;;17.60;11.32;;;;;;;22.34;64.65;102104.78;10459324;28;20048;-60
2021/09/05 09:36:48;;;;;;;17.33;10.85;;;;;;;22.74;63.74;102113.75;10458867;28;20049;-59
2021/09/05 09:41:50;;;;;;;18.08;11.30;;;;;;;23.08;60.79;102106.28;10457835;28;20049;-60
2021/09/05 09:46:52;;;;;;;19.05;10.40;;;;;;;23.31;59.25;102098.00;10458489;28;20067;-59
2021/09/05 09:52:00;;;;;;;11.90;9.40;;;;;;;23.80;60.61;102096.13;10458591;28;20048;-60
2021/09/05 09:57:03;;;;;;;13.38;9.70;;;;;;;23.95;58.95;102082.34;10458221;28;20139;-60
2021/09/05 10:02:06;;;;;;;11.35;8.32;;;;;;;25.06;56.52;102079.69;10457955;28;20044;-60
2021/09/05 10:07:09;;;;;;;11.63;8.88;;;;;;;24.20;56.72;102079.00;10456236;28;20128;-60
2021/09/05 10:12:12;;;;;;;13.85;10.32;;;;;;;25.11;57.06;102078.22;10456047;28;20482;-61
2021/09/05 10:17:15;;;;;;;12.85;8.93;;;;;;;24.06;57.58;102080.34;10456282;28;20044;-61
2021/09/05 10:22:31;;;;;;;19.25;8.95;;;;;;;25.79;52.63;102076.81;10456200;28;20052;-60
2021/09/05 10:27:35;;;;;;;13.40;9.77;;;;;;;23.51;57.62;102080.97;10456590;28;20056;-60
2021/09/05 10:32:52;;;;;;;12.07;8.35;;;;;;;25.16;53.48;102088.50;10456971;28;20403;-60
2021/09/05 10:38:22;;;;;;;21.23;8.68;;;;;;;26.00;51.52;102078.31;10456990;28;20048;-61
2021/09/05 10:43:47;;;;;;;14.02;8.05;;;;;;;25.11;52.57;102074.72;10456619;28;20049;-63
2021/09/05 10:48:54;;;;;;;10.25;8.07;;;;;;;25.31;50.79;102067.41;10456574;28;20049;-60
2021/09/05 10:54:08;;;;;;;14.20;9.25;;;;;;;25.01;50.21;102062.22;10456704;28;20049;-61
2021/09/05 10:59:22;;;;;;;14.60;8.68;;;;;;;25.91;50.07;102064.81;10456185;28;20049;-60
2021/09/05 11:04:28;;;;;;;13.27;8.55;;;;;;;26.93;47.24;102056.84;10455993;28;20049;-60
2021/09/05 11:09:31;;;;;;;12.98;7.80;;;;;;;25.56;52.19;102052.34;10456427;28;20048;-60
2021/09/05 11:14:48;;;;;;;10.07;7.63;;;;;;;25.20;52.00;102053.22;10455987;28;20425;-60
2021/09/05 11:19:57;;;;;;;14.13;8.73;;;;;;;24.85;49.86;102048.69;10457699;28;20049;-60
2021/09/05 11:25:20;;;;;;;12.23;8.40;;;;;;;26.24;48.32;102056.13;10463789;28;20067;-60
2021/09/05 11:30:27;;;;;;;9.18;7.38;;;;;;;27.29;48.19;102050.38;10463791;28;20421;-60
2021/09/05 11:35:44;;;;;;;10.38;8.10;;;;;;;27.78;44.47;102055.69;10463669;28;20053;-60
2021/09/05 11:40:51;;;;;;;14.48;9.82;;;;;;;25.33;48.92;102052.81;10463413;28;20413;-60
2021/09/05 11:45:54;;;;;;;15.55;7.47;;;;;;;28.03;46.50;102052.97;10463230;28;20057;-60
2021/09/05 11:51:03;;;;;;;12.20;8.50;;;;;;;25.79;48.76;102052.69;10463297;28;20080;-60
2021/09/05 11:56:05;;;;;;;12.50;8.53;;;;;;;28.58;43.23;102043.13;10462862;28;20061;-60
2021/09/05 12:01:08;;;;;;;13.25;9.32;;;;;;;25.40;49.10;102048.56;10462820;28;20041;-60
2021/09/05 12:06:10;;;;;;;14.90;9.52;;;;;;;27.06;44.43;102042.94;10461093;28;20485;-60
2021/09/05 12:11:13;;;;;;;11.82;9.25;;;;;;;26.33;46.41;102042.56;10461101;28;20045;-60
2021/09/05 12:16:41;;;;;;;11.40;8.57;;;;;;;28.39;44.35;102041.72;10460745;28;20047;-60
2021/09/05 12:21:43;;;;;;;10.30;8.88;;;;;;;26.66;46.37;102053.47;10456761;28;20053;-60
2021/09/05 12:26:46;;;;;;;11.95;9.32;;;;;;;25.84;46.85;102046.81;10458669;28;20056;-60
2021/09/05 12:31:48;;;;;;;13.32;9.30;;;;;;;27.84;45.90;102049.63;10459667;28;20080;-60
2021/09/05 12:36:56;;;;;;;11.32;9.48;;;;;;;28.70;43.28;102047.13;10461273;28;20504;-60
2021/09/05 12:42:09;;;;;;;15.82;8.98;;;;;;;27.28;45.02;102043.28;10461136;28;20048;-60
2021/09/05 12:47:18;;;;;;;13.88;8.82;;;;;;;25.91;46.26;102038.00;10460788;28;20127;-60
2021/09/05 12:52:25;;;;;;;10.30;8.37;;;;;;;27.04;44.97;102029.66;10460277;28;20393;-60
2021/09/05 12:57:29;;;;;;;11.70;9.05;;;;;;;25.34;47.91;102033.09;10460546;28;20052;-60
2021/09/05 13:02:31;;;;;;;11.05;7.90;;;;;;;29.79;45.25;102022.63;10460222;28;20045;-60
2021/09/05 13:07:34;;;;;;;10.98;8.75;;;;;;;27.27;43.91;102025.47;10458095;28;20084;-60
2021/09/05 13:12:37;;;;;;;14.00;9.02;;;;;;;28.58;41.04;102035.06;10458807;28;20068;-60
2021/09/05 13:17:39;;;;;;;14.80;8.45;;;;;;;28.56;38.62;102032.53;10455464;28;20053;-60
2021/09/05 13:22:42;;;;;;;11.95;8.93;;;;;;;26.24;43.61;102029.28;10454655;28;20045;-60
2021/09/05 13:27:44;;;;;;;9.07;8.15;;;;;;;29.56;39.08;102025.38;10456051;28;20091;-60
2021/09/05 13:32:46;;;;;;;15.88;8.52;;;;;;;27.61;42.67;102023.44;10456026;28;20409;-60
2021/09/05 13:37:49;;;;;;;12.18;8.48;;;;;;;27.19;44.04;102021.78;10458138;28;20064;-60
2021/09/05 13:42:52;;;;;;;11.75;8.00;;;;;;;28.84;42.63;102022.09;10459065;28;20041;-60
2021/09/05 13:47:54;;;;;;;9.63;7.05;;;;;;;30.09;40.58;102020.75;10458143;28;20061;-60
2021/09/05 13:52:56;;;;;;;11.93;8.80;;;;;;;30.17;39.17;102020.63;10458376;28;20129;-60
2021/09/05 13:57:59;;;;;;;11.60;8.90;;;;;;;27.31;44.31;102016.09;10457726;28;20493;-60
2021/09/05 14:03:01;;;;;;;11.27;8.63;;;;;;;31.10;37.08;102012.75;10457949;28;20049;-60
2021/09/05 14:08:04;;;;;;;13.48;9.30;;;;;;;27.93;45.05;102016.31;10456993;28;20501;-60
2021/09/05 14:13:06;;;;;;;19.92;12.32;;;;;;;25.48;45.32;102009.38;10457896;28;20052;-60
2021/09/05 14:18:09;;;;;;;11.55;9.07;;;;;;;31.05;37.53;102003.53;10457189;28;20482;-60
2021/09/05 14:23:11;;;;;;;11.57;8.98;;;;;;;29.12;39.38;102001.81;10457304;28;20049;-60
2021/09/05 14:28:18;;;;;;;10.43;8.30;;;;;;;30.82;37.56;102001.84;10456969;28;20057;-60
2021/09/05 14:33:45;;;;;;;12.50;9.60;;;;;;;28.26;37.69;101999.19;10456820;28;20447;-60
2021/09/05 14:49:13;;;;;;;12.70;9.40;;;;;;;28.90;35.00;102005.22;10456681;28;20056;-60
2021/09/05 15:15:10;;;;;;;9.45;8.48;;;;;;;29.76;36.20;101999.53;10456464;28;20052;-60
2021/09/05 15:20:14;;;;;;;14.25;8.98;;;;;;;28.32;39.29;101996.63;10454618;28;20556;-60
2021/09/05 15:25:20;;;;;;;8.20;7.40;;;;;;;28.41;41.23;101999.28;10456265;28;20045;-60
2021/09/05 15:51:34;;;;;;;16.70;9.65;;;;;;;25.53;46.01;101999.88;10455334;28;20489;-59
2021/09/05 15:56:37;;;;;;;15.85;10.05;;;;;;;26.05;46.20;102006.22;10455742;28;20053;-59
2021/09/05 16:17:11;;;;;;;17.33;11.07;;;;;;;24.06;52.61;102004.59;10462015;28;20408;-60
2021/09/05 16:22:15;;;;;;;16.45;10.00;;;;;;;24.03;52.63;102005.72;10462163;28;20056;-60
2021/09/05 16:27:22;;;;;;;11.10;9.07;;;;;;;23.29;56.50;101995.78;10461374;28;20496;-59
2021/09/05 16:42:55;;;;;;;12.30;9.38;;;;;;;22.37;66.41;102008.44;10461254;28;20436;-59
2021/09/05 16:47:58;;;;;;;11.07;8.88;;;;;;;22.11;65.96;102017.84;10460779;28;20045;-60
2021/09/05 16:53:01;;;;;;;12.07;9.65;;;;;;;21.88;65.31;102008.22;10460855;28;20152;-59
2021/09/05 16:58:03;;;;;;;10.20;9.13;;;;;;;21.95;69.13;102013.84;10460634;28;20082;-60
2021/09/05 17:03:05;;;;;;;13.18;9.25;;;;;;;20.99;73.34;102018.38;10460204;28;20060;-59
2021/09/05 17:08:08;;;;;;;13.85;9.73;;;;;;;20.55;78.83;102025.47;10460070;28;20370;-59
2021/09/05 17:13:10;;;;;;;15.48;8.82;;;;;;;20.12;82.21;102031.53;10460024;28;20056;-59
2021/09/05 17:18:13;;;;;;;12.52;10.15;;;;;;;19.86;83.93;102029.97;10459123;28;20049;-59
2021/09/05 17:23:15;;;;;;;11.38;9.60;;;;;;;19.48;87.33;102033.72;10459474;28;20048;-59
2021/09/05 17:28:18;;;;;;;14.98;9.90;;;;;;;19.39;86.53;102039.72;10459248;28;20059;-59
2021/09/05 17:33:20;;;;;;;13.80;10.00;;;;;;;19.53;85.53;102046.63;10459171;28;20063;-59
2021/09/05 17:38:23;;;;;;;14.20;10.82;;;;;;;19.19;88.45;102048.34;10458728;28;20413;-59
2021/09/05 17:43:25;;;;;;;14.20;9.00;;;;;;;19.06;87.89;102043.94;10458987;28;20044;-59
2021/09/05 17:48:27;;;;;;;13.23;10.38;;;;;;;18.63;90.24;102048.84;10458465;28;20052;-59
2021/09/05 17:53:29;;;;;;;11.25;9.63;;;;;;;18.73;88.79;102048.06;10458773;28;20040;-59
2021/09/05 17:58:32;;;;;;;23.88;13.27;;;;;;;18.33;90.61;102063.31;10457982;28;20041;-58
2021/09/05 18:03:34;;;;;;;19.27;11.90;;;;;;;18.06;92.52;102064.28;10458296;28;20045;-59
2021/09/05 18:08:37;;;;;;;14.63;10.73;;;;;;;18.12;91.68;102066.50;10457837;28;20091;-59
2021/09/05 18:13:40;;;;;;;19.67;12.15;;;;;;;17.82;93.65;102067.63;10457532;28;20468;-59
2021/09/05 18:18:42;;;;;;;20.05;12.18;;;;;;;17.79;94.14;102072.28;10457622;28;20048;-59
2021/09/05 18:23:45;;;;;;;16.98;11.73;;;;;;;17.61;94.85;102069.91;10457200;28;20420;-59
2021/09/05 18:28:48;;;;;;;14.07;10.55;;;;;;;17.44;96.61;102080.78;10457692;28;20065;-59
2021/09/05 18:33:50;;;;;;;18.23;10.27;;;;;;;17.31;96.87;102078.09;10456814;28;20053;-59
2021/09/05 18:38:53;;;;;;;18.73;12.45;;;;;;;17.09;98.54;102087.41;10457623;28;20059;-58
2021/09/05 18:43:56;;;;;;;18.67;12.80;;;;;;;16.92;99.63;102092.97;10455958;28;20052;-59
2021/09/05 18:48:58;;;;;;;14.00;10.40;;;;;;;16.75;99.67;102096.66;10456664;28;20052;-57
2021/09/05 18:54:00;;;;;;;17.52;9.70;;;;;;;16.89;99.63;102101.09;10457033;28;20045;-58
2021/09/05 18:59:03;;;;;;;10.77;8.77;;;;;;;16.63;100.00;102108.00;10456352;28;20049;-57
2021/09/05 19:04:05;;;;;;;13.68;9.27;;;;;;;16.57;100.00;102111.84;10456943;28;20053;-57
2021/09/05 19:09:08;;;;;;;15.60;9.75;;;;;;;16.38;100.00;102116.59;10456041;28;20491;-58
2021/09/05 19:14:10;;;;;;;13.32;9.65;;;;;;;16.33;100.00;102117.69;10456056;28;20052;-57
2021/09/05 19:19:13;;;;;;;12.07;10.60;;;;;;;16.18;100.00;102120.44;10455853;28;20052;-58
2021/09/05 19:24:15;;;;;;;14.32;10.85;;;;;;;16.03;100.00;102123.03;10455875;28;20067;-58
2021/09/05 19:29:18;;;;;;;10.88;9.07;;;;;;;16.02;100.00;102131.94;10456698;28;20049;-57
2021/09/05 19:34:20;;;;;;;13.43;10.40;;;;;;;15.98;100.00;102136.50;10455704;28;20068;-58
2021/09/05 19:39:22;;;;;;;15.55;12.32;;;;;;;15.82;100.00;102148.94;10455678;28;20064;-58
2021/09/05 19:44:25;;;;;;;15.02;11.13;;;;;;;15.75;100.00;102144.91;10462521;28;20053;-58
2021/09/05 19:49:27;;;;;;;15.77;11.30;;;;;;;15.67;100.00;102152.41;10463231;28;20048;-58
2021/09/05 19:54:29;;;;;;;19.02;12.40;;;;;;;15.49;100.00;102156.97;10463604;28;20049;-58
2021/09/05 19:59:32;;;;;;;15.38;12.43;;;;;;;15.56;100.00;102153.03;10462832;28;20053;-58
2021/09/05 20:04:36;;;;;;;20.60;12.50;;;;;;;15.55;100.00;102148.69;10463143;28;20051;-57
2021/09/05 20:09:39;;;;;;;19.13;12.48;;;;;;;15.40;100.00;102164.47;10462666;28;20079;-57
2021/09/05 20:14:41;;;;;;;21.08;13.85;;;;;;;15.23;100.00;102168.03;10463107;28;20056;-57
2021/09/05 20:19:44;;;;;;;24.60;16.10;;;;;;;15.37;100.00;102169.91;10461980;28;20405;-58
2021/09/05 20:24:46;;;;;;;36.40;17.92;;;;;;;15.28;100.00;102172.19;10462181;28;20071;-58
2021/09/05 20:29:48;;;;;;;25.20;14.85;;;;;;;15.15;100.00;102174.69;10461847;28;20521;-57
2021/09/05 20:34:50;;;;;;;32.22;16.60;;;;;;;15.09;100.00;102175.00;10461636;28;20053;-58
2021/09/05 20:39:53;;;;;;;24.17;14.77;;;;;;;15.01;100.00;102185.97;10461802;28;20041;-58
2021/09/05 20:44:55;;;;;;;29.67;15.40;;;;;;;14.91;100.00;102190.03;10461158;28;20059;-58
2021/09/05 20:50:04;;;;;;;17.30;12.77;;;;;;;14.90;100.00;102191.84;10461066;28;20041;-58
2021/09/05 20:55:08;;;;;;;15.27;10.82;;;;;;;14.76;100.00;102191.69;10460002;28;20087;-57
2021/09/05 21:00:11;;;;;;;17.38;11.15;;;;;;;14.79;100.00;102202.09;10460182;28;20098;-58
2021/09/05 21:05:14;;;;;;;18.17;11.25;;;;;;;14.90;100.00;102193.63;10461328;28;20060;-57
2021/09/05 21:10:16;;;;;;;14.05;9.95;;;;;;;14.72;100.00;102196.28;10460136;28;20045;-57
2021/09/05 21:15:19;;;;;;;18.00;12.05;;;;;;;14.58;100.00;102198.78;10460339;28;20072;-57
2021/09/05 21:20:21;;;;;;;13.85;11.43;;;;;;;14.63;100.00;102202.91;10459821;28;20085;-57
2021/09/05 21:25:24;;;;;;;18.10;11.55;;;;;;;14.63;100.00;102194.16;10459393;28;20493;-58
2021/09/05 21:30:26;;;;;;;17.92;12.23;;;;;;;14.55;100.00;102194.50;10459363;28;20135;-58
2021/09/05 21:35:29;;;;;;;14.23;11.05;;;;;;;14.38;100.00;102205.06;10459221;28;20060;-58
2021/09/05 21:40:31;;;;;;;15.63;11.60;;;;;;;14.42;100.00;102196.91;10459012;28;20056;-57
2021/09/05 21:45:33;;;;;;;14.68;11.57;;;;;;;14.33;100.00;102194.75;10458938;28;20060;-57
2021/09/05 21:50:37;;;;;;;18.15;11.30;;;;;;;14.25;100.00;102199.56;10458420;28;20511;-57
2021/09/05 21:55:39;;;;;;;14.98;11.02;;;;;;;14.31;100.00;102201.91;10458560;28;20045;-58
2021/09/05 22:00:41;;;;;;;12.73;10.45;;;;;;;14.24;100.00;102209.25;10458005;28;20044;-57
2021/09/05 22:05:44;;;;;;;18.65;12.10;;;;;;;14.14;100.00;102194.84;10457574;28;20444;-57
2021/09/05 22:10:47;;;;;;;15.85;11.00;;;;;;;14.04;100.00;102202.34;10457581;28;20386;-57
2021/09/05 22:15:52;;;;;;;18.35;12.00;;;;;;;14.10;100.00;102201.19;10457258;28;20461;-58
2021/09/05 22:20:55;;;;;;;16.85;11.65;;;;;;;13.98;100.00;102200.00;10457340;28;20115;-57
2021/09/05 22:25:57;;;;;;;16.65;11.65;;;;;;;13.92;100.00;102195.06;10457518;28;20049;-57
2021/09/05 22:30:59;;;;;;;18.52;13.00;;;;;;;13.82;100.00;102204.31;10456865;28;20060;-58
2021/09/05 22:36:02;;;;;;;18.23;11.98;;;;;;;13.88;100.00;102198.75;10457057;28;20084;-57
2021/09/05 22:41:05;;;;;;;22.67;12.35;;;;;;;13.89;100.00;102195.22;10456787;28;20045;-57
2021/09/05 22:46:07;;;;;;;19.02;12.70;;;;;;;13.84;100.00;102191.97;10456728;28;20048;-58
2021/09/05 22:51:09;;;;;;;21.27;14.43;;;;;;;13.74;100.00;102196.81;10456763;28;20084;-57
2021/09/05 22:56:11;;;;;;;20.13;13.02;;;;;;;13.70;100.00;102200.50;10456530;28;20049;-57
2021/09/05 23:01:15;;;;;;;20.15;12.77;;;;;;;13.62;100.00;102202.69;10456482;28;20048;-57
2021/09/05 23:06:17;;;;;;;16.85;12.38;;;;;;;13.50;100.00;102201.44;10455961;28;20107;-58
2021/09/05 23:11:20;;;;;;;18.05;12.20;;;;;;;13.59;100.00;102202.81;10456070;28;20049;-57
2021/09/05 23:16:22;;;;;;;22.20;14.40;;;;;;;13.56;100.00;102202.00;10458431;28;20060;-58
2021/09/05 23:21:25;;;;;;;16.75;13.57;;;;;;;13.51;100.00;102211.06;10464381;28;20103;-57
2021/09/05 23:26:27;;;;;;;18.90;13.35;;;;;;;13.45;100.00;102208.72;10464467;28;20049;-57
2021/09/05 23:31:29;;;;;;;16.48;12.55;;;;;;;13.37;100.00;102206.47;10463745;28;20060;-57
2021/09/05 23:36:32;;;;;;;20.40;13.55;;;;;;;13.28;100.00;102202.44;10463795;28;20060;-57
2021/09/05 23:41:34;;;;;;;21.95;15.50;;;;;;;13.42;100.00;102207.09;10463727;28;20049;-56
2021/09/05 23:46:37;;;;;;;24.25;15.30;;;;;;;13.30;100.00;102205.00;10463478;28;20049;-57
2021/09/05 23:51:39;;;;;;;20.58;13.90;;;;;;;13.23;100.00;102201.81;10463175;28;20396;-58
2021/09/05 23:56:42;;;;;;;22.10;15.00;;;;;;;13.11;100.00;102210.25;10463055;28;20401;-58
